sensor_id;sensor_type;location;lat;lon;timestamp;P1;durP1;ratioP1;P2;durP2;ratioP2
40847;SDS011;26570;50.962;5.340;2023-02-11T01:03:07;43.37;;;22.50;;
40847;SDS011;26570;50.962;5.340;2023-02-11T01:05:52;45.77;;;22.70;;
40847;SDS011;26570;50.962;5.340;2023-02-11T01:09:00;41.07;;;22.27;;
40847;SDS011;26570;50.962;5.340;2023-02-11T01:11:46;39.17;;;21.63;;
40847;SDS011;26570;50.962;5.340;2023-02-11T01:14:31;43.60;;;21.57;;
40847;SDS011;26570;50.962;5.340;2023-02-11T01:17:20;42.07;;;21.27;;
40847;SDS011;26570;50.962;5.340;2023-02-11T01:20:15;44.30;;;21.00;;
40847;SDS011;26570;50.962;5.340;2023-02-11T01:23:02;36.80;;;20.37;;
40847;SDS011;26570;50.962;5.340;2023-02-11T01:26:13;36.00;;;19.43;;
40847;SDS011;26570;50.962;5.340;2023-02-11T01:29:20;33.30;;;18.57;;
40847;SDS011;26570;50.962;5.340;2023-02-11T01:32:06;31.40;;;17.83;;
40847;SDS011;26570;50.962;5.340;2023-02-11T01:34:51;32.27;;;17.47;;
40847;SDS011;26570;50.962;5.340;2023-02-11T01:37:37;38.40;;;18.17;;
40847;SDS011;26570;50.962;5.340;2023-02-11T01:40:22;40.77;;;17.77;;
40847;SDS011;26570;50.962;5.340;2023-02-11T01:43:09;35.63;;;17.70;;
40847;SDS011;26570;50.962;5.340;2023-02-11T01:48:41;35.30;;;16.83;;
40847;SDS011;26570;50.962;5.340;2023-02-11T01:51:48;33.13;;;16.73;;
40847;SDS011;26570;50.962;5.340;2023-02-11T01:54:47;34.13;;;16.97;;
40847;SDS011;26570;50.962;5.340;2023-02-11T01:57:55;42.77;;;16.77;;
40847;SDS011;26570;50.962;5.340;2023-02-11T02:00:43;34.13;;;15.87;;
40847;SDS011;26570;50.962;5.340;2023-02-11T02:03:30;36.27;;;15.53;;
40847;SDS011;26570;50.962;5.340;2023-02-11T02:06:25;30.17;;;14.60;;
40847;SDS011;26570;50.962;5.340;2023-02-11T02:09:27;31.50;;;15.77;;
40847;SDS011;26570;50.962;5.340;2023-02-11T02:12:17;31.27;;;15.17;;
40847;SDS011;26570;50.962;5.340;2023-02-11T02:15:27;31.30;;;14.23;;
40847;SDS011;26570;50.962;5.340;2023-02-11T02:21:50;26.40;;;13.83;;
40847;SDS011;26570;50.962;5.340;2023-02-11T02:25:04;32.47;;;14.00;;
40847;SDS011;26570;50.962;5.340;2023-02-11T02:34:43;30.20;;;14.00;;
40847;SDS011;26570;50.962;5.340;2023-02-11T02:40:53;35.67;;;14.97;;
40847;SDS011;26570;50.962;5.340;2023-02-11T02:44:12;26.23;;;14.70;;
40847;SDS011;26570;50.962;5.340;2023-02-11T02:47:20;23.80;;;13.93;;
40847;SDS011;26570;50.962;5.340;2023-02-11T02:50:33;28.87;;;14.10;;
40847;SDS011;26570;50.962;5.340;2023-02-11T02:53:24;27.10;;;13.00;;
40847;SDS011;26570;50.962;5.340;2023-02-11T02:59:27;32.53;;;14.17;;
40847;SDS011;26570;50.962;5.340;2023-02-11T03:02:40;34.67;;;15.73;;
40847;SDS011;26570;50.962;5.340;2023-02-11T03:05:46;33.10;;;13.40;;
40847;SDS011;26570;50.962;5.340;2023-02-11T03:08:50;27.20;;;12.60;;
40847;SDS011;26570;50.962;5.340;2023-02-11T03:11:48;27.60;;;12.93;;
40847;SDS011;26570;50.962;5.340;2023-02-11T03:15:02;35.80;;;14.40;;
40847;SDS011;26570;50.962;5.340;2023-02-11T03:18:15;26.67;;;12.70;;
40847;SDS011;26570;50.962;5.340;2023-02-11T03:21:27;29.73;;;13.38;;
40847;SDS011;26570;50.962;5.340;2023-02-11T03:24:19;44.37;;;14.17;;
40847;SDS011;26570;50.962;5.340;2023-02-11T03:27:55;29.93;;;12.97;;
40847;SDS011;26570;50.962;5.340;2023-02-11T03:30:31;30.90;;;14.18;;
40847;SDS011;26570;50.962;5.340;2023-02-11T03:33:30;30.60;;;12.23;;
40847;SDS011;26570;50.962;5.340;2023-02-11T03:36:27;28.53;;;12.60;;
40847;SDS011;26570;50.962;5.340;2023-02-11T03:39:42;36.53;;;12.97;;
40847;SDS011;26570;50.962;5.340;2023-02-11T03:42:33;27.53;;;11.97;;
40847;SDS011;26570;50.962;5.340;2023-02-11T03:46:01;28.53;;;12.67;;
40847;SDS011;26570;50.962;5.340;2023-02-11T03:48:48;27.43;;;11.60;;
40847;SDS011;26570;50.962;5.340;2023-02-11T03:51:37;26.07;;;11.97;;
40847;SDS011;26570;50.962;5.340;2023-02-11T03:54:27;20.60;;;10.83;;
40847;SDS011;26570;50.962;5.340;2023-02-11T03:57:14;30.40;;;12.37;;
40847;SDS011;26570;50.962;5.340;2023-02-11T03:59:59;26.73;;;11.43;;
40847;SDS011;26570;50.962;5.340;2023-02-11T04:03:07;36.77;;;13.03;;
40847;SDS011;26570;50.962;5.340;2023-02-11T04:05:56;35.17;;;12.33;;
40847;SDS011;26570;50.962;5.340;2023-02-11T04:08:43;30.63;;;12.73;;
40847;SDS011;26570;50.962;5.340;2023-02-11T04:11:29;32.43;;;12.87;;
40847;SDS011;26570;50.962;5.340;2023-02-11T04:14:14;30.00;;;12.37;;
40847;SDS011;26570;50.962;5.340;2023-02-11T04:17:21;36.27;;;12.13;;
40847;SDS011;26570;50.962;5.340;2023-02-11T04:20:07;28.77;;;13.10;;
40847;SDS011;26570;50.962;5.340;2023-02-11T04:22:53;31.57;;;12.83;;
40847;SDS011;26570;50.962;5.340;2023-02-11T04:25:42;30.27;;;12.10;;
40847;SDS011;26570;50.962;5.340;2023-02-11T04:28:27;36.10;;;13.23;;
40847;SDS011;26570;50.962;5.340;2023-02-11T04:31:15;31.23;;;11.97;;
40847;SDS011;26570;50.962;5.340;2023-02-11T04:34:03;32.53;;;12.83;;
40847;SDS011;26570;50.962;5.340;2023-02-11T04:36:49;30.47;;;14.40;;
40847;SDS011;26570;50.962;5.340;2023-02-11T04:39:59;35.57;;;12.97;;
40847;SDS011;26570;50.962;5.340;2023-02-11T04:43:07;32.70;;;14.50;;
40847;SDS011;26570;50.962;5.340;2023-02-11T04:45:55;37.90;;;14.77;;
40847;SDS011;26570;50.962;5.340;2023-02-11T04:48:44;36.70;;;14.10;;
40847;SDS011;26570;50.962;5.340;2023-02-11T04:51:30;35.67;;;14.53;;
40847;SDS011;26570;50.962;5.340;2023-02-11T04:54:15;33.63;;;14.27;;
40847;SDS011;26570;50.962;5.340;2023-02-11T04:57:23;35.87;;;14.50;;
40847;SDS011;26570;50.962;5.340;2023-02-11T05:00:09;34.87;;;14.70;;
40847;SDS011;26570;50.962;5.340;2023-02-11T05:03:20;32.13;;;14.60;;
40847;SDS011;26570;50.962;5.340;2023-02-11T05:06:05;32.63;;;14.20;;
40847;SDS011;26570;50.962;5.340;2023-02-11T05:08:51;31.97;;;14.37;;
40847;SDS011;26570;50.962;5.340;2023-02-11T05:11:59;37.33;;;15.13;;
40847;SDS011;26570;50.962;5.340;2023-02-11T05:14:44;38.03;;;15.07;;
40847;SDS011;26570;50.962;5.340;2023-02-11T05:17:51;36.90;;;15.03;;
40847;SDS011;26570;50.962;5.340;2023-02-11T05:20:36;32.33;;;14.13;;
40847;SDS011;26570;50.962;5.340;2023-02-11T05:23:45;34.07;;;15.90;;
40847;SDS011;26570;50.962;5.340;2023-02-11T05:26:30;34.30;;;14.90;;
40847;SDS011;26570;50.962;5.340;2023-02-11T05:29:38;33.83;;;15.43;;
40847;SDS011;26570;50.962;5.340;2023-02-11T05:32:45;38.83;;;15.63;;
40847;SDS011;26570;50.962;5.340;2023-02-11T05:35:31;35.33;;;15.57;;
40847;SDS011;26570;50.962;5.340;2023-02-11T05:38:16;35.40;;;16.67;;
40847;SDS011;26570;50.962;5.340;2023-02-11T05:41:01;34.90;;;16.30;;
40847;SDS011;26570;50.962;5.340;2023-02-11T05:43:47;38.93;;;17.13;;
40847;SDS011;26570;50.962;5.340;2023-02-11T05:46:38;38.47;;;17.57;;
40847;SDS011;26570;50.962;5.340;2023-02-11T05:49:23;45.80;;;18.70;;
40847;SDS011;26570;50.962;5.340;2023-02-11T05:52:34;46.60;;;18.53;;
40847;SDS011;26570;50.962;5.340;2023-02-11T05:55:20;43.13;;;18.90;;
40847;SDS011;26570;50.962;5.340;2023-02-11T05:58:27;42.13;;;18.83;;
40847;SDS011;26570;50.962;5.340;2023-02-11T06:01:35;39.13;;;19.53;;
40847;SDS011;26570;50.962;5.340;2023-02-11T06:04:20;35.83;;;19.77;;
40847;SDS011;26570;50.962;5.340;2023-02-11T06:07:28;40.53;;;19.50;;
40847;SDS011;26570;50.962;5.340;2023-02-11T06:10:35;45.63;;;19.00;;
40847;SDS011;26570;50.962;5.340;2023-02-11T06:13:26;38.87;;;19.87;;
40847;SDS011;26570;50.962;5.340;2023-02-11T06:16:11;42.40;;;20.40;;
40847;SDS011;26570;50.962;5.340;2023-02-11T06:18:56;36.93;;;19.37;;
40847;SDS011;26570;50.962;5.340;2023-02-11T06:21:45;44.53;;;20.90;;
40847;SDS011;26570;50.962;5.340;2023-02-11T06:24:52;41.77;;;19.43;;
40847;SDS011;26570;50.962;5.340;2023-02-11T06:27:40;47.07;;;20.03;;
40847;SDS011;26570;50.962;5.340;2023-02-11T06:30:25;50.47;;;21.53;;
40847;SDS011;26570;50.962;5.340;2023-02-11T06:33:33;49.83;;;22.93;;
40847;SDS011;26570;50.962;5.340;2023-02-11T06:36:21;51.17;;;21.33;;
40847;SDS011;26570;50.962;5.340;2023-02-11T06:39:07;45.07;;;21.47;;
40847;SDS011;26570;50.962;5.340;2023-02-11T06:41:55;49.40;;;22.13;;
40847;SDS011;26570;50.962;5.340;2023-02-11T06:44:42;49.37;;;23.47;;
40847;SDS011;26570;50.962;5.340;2023-02-11T06:47:28;48.37;;;21.83;;
40847;SDS011;26570;50.962;5.340;2023-02-11T06:50:13;42.53;;;23.40;;
40847;SDS011;26570;50.962;5.340;2023-02-11T06:52:58;57.20;;;23.67;;
40847;SDS011;26570;50.962;5.340;2023-02-11T06:55:44;46.80;;;21.93;;
40847;SDS011;26570;50.962;5.340;2023-02-11T06:58:28;55.50;;;24.00;;
40847;SDS011;26570;50.962;5.340;2023-02-11T07:01:14;47.27;;;24.23;;
40847;SDS011;26570;50.962;5.340;2023-02-11T07:04:22;50.67;;;25.27;;
40847;SDS011;26570;50.962;5.340;2023-02-11T07:07:31;51.30;;;24.07;;
40847;SDS011;26570;50.962;5.340;2023-02-11T07:10:19;41.73;;;23.20;;
40847;SDS011;26570;50.962;5.340;2023-02-11T07:13:04;62.03;;;27.00;;
40847;SDS011;26570;50.962;5.340;2023-02-11T07:16:13;58.30;;;25.17;;
40847;SDS011;26570;50.962;5.340;2023-02-11T07:19:05;55.13;;;26.10;;
40847;SDS011;26570;50.962;5.340;2023-02-11T07:21:50;55.57;;;26.03;;
40847;SDS011;26570;50.962;5.340;2023-02-11T07:24:35;56.17;;;26.63;;
40847;SDS011;26570;50.962;5.340;2023-02-11T07:27:20;54.03;;;26.10;;
40847;SDS011;26570;50.962;5.340;2023-02-11T07:30:05;60.07;;;27.17;;
40847;SDS011;26570;50.962;5.340;2023-02-11T07:33:15;56.63;;;25.77;;
40847;SDS011;26570;50.962;5.340;2023-02-11T07:36:00;59.57;;;26.47;;
40847;SDS011;26570;50.962;5.340;2023-02-11T07:38:46;52.80;;;25.77;;
40847;SDS011;26570;50.962;5.340;2023-02-11T07:41:31;47.87;;;27.07;;
40847;SDS011;26570;50.962;5.340;2023-02-11T07:44:18;54.63;;;26.80;;
40847;SDS011;26570;50.962;5.340;2023-02-11T07:47:03;60.97;;;27.47;;
40847;SDS011;26570;50.962;5.340;2023-02-11T07:49:48;59.60;;;29.17;;
40847;SDS011;26570;50.962;5.340;2023-02-11T07:52:33;56.57;;;29.17;;
40847;SDS011;26570;50.962;5.340;2023-02-11T07:55:18;56.10;;;28.73;;
40847;SDS011;26570;50.962;5.340;2023-02-11T07:58:04;67.27;;;28.90;;
40847;SDS011;26570;50.962;5.340;2023-02-11T08:00:49;55.10;;;28.60;;
40847;SDS011;26570;50.962;5.340;2023-02-11T08:03:57;64.10;;;30.23;;
40847;SDS011;26570;50.962;5.340;2023-02-11T08:06:44;64.67;;;29.83;;
40847;SDS011;26570;50.962;5.340;2023-02-11T08:09:29;61.77;;;30.47;;
40847;SDS011;26570;50.962;5.340;2023-02-11T08:12:14;64.50;;;30.43;;
40847;SDS011;26570;50.962;5.340;2023-02-11T08:14:59;67.87;;;30.57;;
40847;SDS011;26570;50.962;5.340;2023-02-11T08:17:44;70.53;;;33.40;;
40847;SDS011;26570;50.962;5.340;2023-02-11T08:20:29;70.07;;;32.97;;
40847;SDS011;26570;50.962;5.340;2023-02-11T08:23:14;82.00;;;35.57;;
40847;SDS011;26570;50.962;5.340;2023-02-11T08:26:06;72.50;;;33.07;;
40847;SDS011;26570;50.962;5.340;2023-02-11T08:28:56;79.30;;;35.07;;
40847;SDS011;26570;50.962;5.340;2023-02-11T08:31:44;71.73;;;34.70;;
40847;SDS011;26570;50.962;5.340;2023-02-11T08:34:30;70.13;;;34.03;;
40847;SDS011;26570;50.962;5.340;2023-02-11T08:37:15;71.37;;;34.17;;
40847;SDS011;26570;50.962;5.340;2023-02-11T08:40:01;72.20;;;35.70;;
40847;SDS011;26570;50.962;5.340;2023-02-11T08:42:46;77.03;;;35.40;;
40847;SDS011;26570;50.962;5.340;2023-02-11T08:45:32;80.20;;;34.83;;
40847;SDS011;26570;50.962;5.340;2023-02-11T08:48:18;79.27;;;34.60;;
40847;SDS011;26570;50.962;5.340;2023-02-11T08:51:37;80.00;;;33.93;;
40847;SDS011;26570;50.962;5.340;2023-02-11T08:54:37;75.70;;;33.27;;
40847;SDS011;26570;50.962;5.340;2023-02-11T08:57:22;77.10;;;34.10;;
40847;SDS011;26570;50.962;5.340;2023-02-11T09:00:07;79.70;;;35.63;;
40847;SDS011;26570;50.962;5.340;2023-02-11T09:02:54;82.97;;;36.10;;
40847;SDS011;26570;50.962;5.340;2023-02-11T09:05:40;77.33;;;36.00;;
40847;SDS011;26570;50.962;5.340;2023-02-11T09:08:26;75.03;;;36.20;;
40847;SDS011;26570;50.962;5.340;2023-02-11T09:11:11;68.83;;;34.80;;
40847;SDS011;26570;50.962;5.340;2023-02-11T09:13:57;77.00;;;37.10;;
40847;SDS011;26570;50.962;5.340;2023-02-11T09:16:42;73.60;;;36.80;;
40847;SDS011;26570;50.962;5.340;2023-02-11T09:19:27;82.10;;;38.10;;
40847;SDS011;26570;50.962;5.340;2023-02-11T09:22:12;86.77;;;36.33;;
40847;SDS011;26570;50.962;5.340;2023-02-11T09:24:58;86.53;;;37.07;;
40847;SDS011;26570;50.962;5.340;2023-02-11T09:27:46;84.57;;;37.67;;
40847;SDS011;26570;50.962;5.340;2023-02-11T09:30:32;83.10;;;38.73;;
40847;SDS011;26570;50.962;5.340;2023-02-11T09:33:19;87.00;;;37.57;;
40847;SDS011;26570;50.962;5.340;2023-02-11T09:36:05;87.77;;;37.70;;
40847;SDS011;26570;50.962;5.340;2023-02-11T09:38:53;76.70;;;35.57;;
40847;SDS011;26570;50.962;5.340;2023-02-11T09:45:27;84.60;;;38.92;;
40847;SDS011;26570;50.962;5.340;2023-02-11T09:48:37;88.13;;;37.67;;
40847;SDS011;26570;50.962;5.340;2023-02-11T09:54:44;84.63;;;38.03;;
40847;SDS011;26570;50.962;5.340;2023-02-11T09:57:33;85.97;;;37.60;;
40847;SDS011;26570;50.962;5.340;2023-02-11T10:06:53;92.43;;;38.03;;
40847;SDS011;26570;50.962;5.340;2023-02-11T10:09:47;86.77;;;38.13;;
40847;SDS011;26570;50.962;5.340;2023-02-11T10:12:55;85.70;;;38.03;;
40847;SDS011;26570;50.962;5.340;2023-02-11T10:15:44;78.93;;;38.47;;
40847;SDS011;26570;50.962;5.340;2023-02-11T10:24:55;83.70;;;37.73;;
40847;SDS011;26570;50.962;5.340;2023-02-11T10:27:43;88.87;;;38.57;;
40847;SDS011;26570;50.962;5.340;2023-02-11T10:30:32;88.23;;;39.30;;
40847;SDS011;26570;50.962;5.340;2023-02-11T10:33:30;87.93;;;40.73;;
40847;SDS011;26570;50.962;5.340;2023-02-11T10:36:33;91.23;;;38.97;;
40847;SDS011;26570;50.962;5.340;2023-02-11T10:39:22;80.53;;;38.83;;
40847;SDS011;26570;50.962;5.340;2023-02-11T10:42:10;92.80;;;40.40;;
40847;SDS011;26570;50.962;5.340;2023-02-11T10:51:34;87.67;;;39.63;;
40847;SDS011;26570;50.962;5.340;2023-02-11T10:54:23;97.33;;;40.60;;
40847;SDS011;26570;50.962;5.340;2023-02-11T10:57:11;90.83;;;40.03;;
40847;SDS011;26570;50.962;5.340;2023-02-11T11:00:05;95.90;;;39.60;;
40847;SDS011;26570;50.962;5.340;2023-02-11T11:03:28;84.60;;;38.97;;
40847;SDS011;26570;50.962;5.340;2023-02-11T11:06:36;97.17;;;39.43;;
40847;SDS011;26570;50.962;5.340;2023-02-11T11:09:28;86.97;;;39.43;;
40847;SDS011;26570;50.962;5.340;2023-02-11T11:12:33;102.47;;;40.00;;
40847;SDS011;26570;50.962;5.340;2023-02-11T11:15:24;89.60;;;39.60;;
40847;SDS011;26570;50.962;5.340;2023-02-11T11:18:15;88.70;;;39.97;;
40847;SDS011;26570;50.962;5.340;2023-02-11T11:21:06;99.27;;;42.47;;
40847;SDS011;26570;50.962;5.340;2023-02-11T11:23:56;90.15;;;40.35;;
40847;SDS011;26570;50.962;5.340;2023-02-11T11:26:50;89.00;;;40.63;;
40847;SDS011;26570;50.962;5.340;2023-02-11T11:29:47;92.80;;;42.25;;
40847;SDS011;26570;50.962;5.340;2023-02-11T11:32:37;91.10;;;41.30;;
40847;SDS011;26570;50.962;5.340;2023-02-11T11:36:07;89.43;;;41.07;;
40847;SDS011;26570;50.962;5.340;2023-02-11T11:45:28;93.30;;;40.53;;
40847;SDS011;26570;50.962;5.340;2023-02-11T11:48:21;91.37;;;39.97;;
40847;SDS011;26570;50.962;5.340;2023-02-11T11:51:09;88.63;;;40.60;;
40847;SDS011;26570;50.962;5.340;2023-02-11T11:54:03;91.37;;;41.00;;
40847;SDS011;26570;50.962;5.340;2023-02-11T11:56:57;93.17;;;41.83;;
40847;SDS011;26570;50.962;5.340;2023-02-11T11:59:48;84.67;;;38.93;;
40847;SDS011;26570;50.962;5.340;2023-02-11T12:09:06;87.20;;;39.73;;
40847;SDS011;26570;50.962;5.340;2023-02-11T12:30:40;82.10;;;38.43;;
40847;SDS011;26570;50.962;5.340;2023-02-11T12:34:08;89.37;;;40.13;;
40847;SDS011;26570;50.962;5.340;2023-02-11T12:43:36;86.13;;;38.93;;
40847;SDS011;26570;50.962;5.340;2023-02-11T12:46:29;90.27;;;40.13;;
40847;SDS011;26570;50.962;5.340;2023-02-11T12:49:49;81.93;;;37.67;;
40847;SDS011;26570;50.962;5.340;2023-02-11T12:56:51;86.10;;;38.42;;
40847;SDS011;26570;50.962;5.340;2023-02-11T13:02:46;79.33;;;38.53;;
40847;SDS011;26570;50.962;5.340;2023-02-11T13:05:54;79.17;;;38.50;;
40847;SDS011;26570;50.962;5.340;2023-02-11T13:09:16;88.43;;;38.85;;
40847;SDS011;26570;50.962;5.340;2023-02-11T13:12:11;82.60;;;37.77;;
40847;SDS011;26570;50.962;5.340;2023-02-11T13:15:16;81.60;;;38.30;;
40847;SDS011;26570;50.962;5.340;2023-02-11T13:18:18;79.57;;;38.83;;
40847;SDS011;26570;50.962;5.340;2023-02-11T13:21:28;84.27;;;41.13;;
40847;SDS011;26570;50.962;5.340;2023-02-11T13:38:56;75.93;;;38.63;;
40847;SDS011;26570;50.962;5.340;2023-02-11T13:41:47;72.83;;;37.00;;
40847;SDS011;26570;50.962;5.340;2023-02-11T13:44:32;81.77;;;38.23;;
40847;SDS011;26570;50.962;5.340;2023-02-11T13:47:26;75.33;;;38.17;;
40847;SDS011;26570;50.962;5.340;2023-02-11T13:50:19;72.23;;;37.70;;
40847;SDS011;26570;50.962;5.340;2023-02-11T13:53:10;83.87;;;37.47;;
40847;SDS011;26570;50.962;5.340;2023-02-11T13:56:10;79.80;;;38.73;;
40847;SDS011;26570;50.962;5.340;2023-02-11T14:05:39;82.32;;;38.38;;
40847;SDS011;26570;50.962;5.340;2023-02-11T14:27:34;75.87;;;38.50;;
40847;SDS011;26570;50.962;5.340;2023-02-11T14:37:05;76.13;;;36.33;;
40847;SDS011;26570;50.962;5.340;2023-02-11T14:43:15;74.47;;;37.37;;
40847;SDS011;26570;50.962;5.340;2023-02-11T14:46:04;73.93;;;36.37;;
40847;SDS011;26570;50.962;5.340;2023-02-11T14:48:51;73.37;;;37.10;;
40847;SDS011;26570;50.962;5.340;2023-02-11T14:51:40;78.30;;;38.90;;
40847;SDS011;26570;50.962;5.340;2023-02-11T14:54:26;73.33;;;38.37;;
40847;SDS011;26570;50.962;5.340;2023-02-11T14:57:37;73.70;;;37.97;;
40847;SDS011;26570;50.962;5.340;2023-02-11T15:00:23;80.27;;;39.13;;
40847;SDS011;26570;50.962;5.340;2023-02-11T15:03:22;73.33;;;37.33;;
40847;SDS011;26570;50.962;5.340;2023-02-11T15:09:36;78.50;;;38.10;;
40847;SDS011;26570;50.962;5.340;2023-02-11T15:12:25;77.53;;;38.97;;
40847;SDS011;26570;50.962;5.340;2023-02-11T15:15:11;74.07;;;37.93;;
40847;SDS011;26570;50.962;5.340;2023-02-11T15:17:58;80.67;;;38.53;;
40847;SDS011;26570;50.962;5.340;2023-02-11T15:20:46;73.53;;;39.43;;
40847;SDS011;26570;50.962;5.340;2023-02-11T15:23:33;68.30;;;35.93;;
40847;SDS011;26570;50.962;5.340;2023-02-11T15:26:20;76.63;;;38.17;;
40847;SDS011;26570;50.962;5.340;2023-02-11T15:29:14;74.93;;;39.00;;
40847;SDS011;26570;50.962;5.340;2023-02-11T15:32:06;74.30;;;37.17;;
40847;SDS011;26570;50.962;5.340;2023-02-11T15:34:59;75.87;;;38.50;;
40847;SDS011;26570;50.962;5.340;2023-02-11T15:37:44;74.13;;;38.30;;
40847;SDS011;26570;50.962;5.340;2023-02-11T15:40:31;75.00;;;38.67;;
40847;SDS011;26570;50.962;5.340;2023-02-11T15:43:20;71.40;;;37.27;;
40847;SDS011;26570;50.962;5.340;2023-02-11T15:46:31;81.30;;;38.97;;
40847;SDS011;26570;50.962;5.340;2023-02-11T15:49:21;74.00;;;36.77;;
40847;SDS011;26570;50.962;5.340;2023-02-11T15:52:08;82.83;;;38.43;;
40847;SDS011;26570;50.962;5.340;2023-02-11T15:54:55;80.37;;;39.33;;
40847;SDS011;26570;50.962;5.340;2023-02-11T15:58:07;73.60;;;37.37;;
40847;SDS011;26570;50.962;5.340;2023-02-11T16:01:16;73.80;;;38.67;;
40847;SDS011;26570;50.962;5.340;2023-02-11T16:04:02;79.10;;;40.53;;
40847;SDS011;26570;50.962;5.340;2023-02-11T16:06:48;74.00;;;39.50;;
40847;SDS011;26570;50.962;5.340;2023-02-11T16:09:34;73.60;;;41.13;;
40847;SDS011;26570;50.962;5.340;2023-02-11T16:12:50;81.53;;;44.40;;
40847;SDS011;26570;50.962;5.340;2023-02-11T16:15:43;78.73;;;40.30;;
40847;SDS011;26570;50.962;5.340;2023-02-11T16:18:36;78.50;;;39.63;;
40847;SDS011;26570;50.962;5.340;2023-02-11T16:21:29;81.10;;;40.43;;
40847;SDS011;26570;50.962;5.340;2023-02-11T16:24:19;81.20;;;39.50;;
40847;SDS011;26570;50.962;5.340;2023-02-11T16:33:24;81.80;;;41.90;;
40847;SDS011;26570;50.962;5.340;2023-02-11T16:36:13;84.47;;;41.80;;
40847;SDS011;26570;50.962;5.340;2023-02-11T16:39:07;83.13;;;41.47;;
40847;SDS011;26570;50.962;5.340;2023-02-11T16:41:59;82.93;;;43.40;;
40847;SDS011;26570;50.962;5.340;2023-02-11T16:44:45;84.63;;;42.47;;
40847;SDS011;26570;50.962;5.340;2023-02-11T16:47:42;81.43;;;41.60;;
40847;SDS011;26570;50.962;5.340;2023-02-11T16:50:34;83.47;;;42.17;;
40847;SDS011;26570;50.962;5.340;2023-02-11T16:53:23;81.97;;;42.37;;
40847;SDS011;26570;50.962;5.340;2023-02-11T16:56:17;80.17;;;40.60;;
40847;SDS011;26570;50.962;5.340;2023-02-11T16:59:05;83.32;;;42.17;;
40847;SDS011;26570;50.962;5.340;2023-02-11T17:02:46;82.87;;;43.17;;
40847;SDS011;26570;50.962;5.340;2023-02-11T17:05:30;78.77;;;40.27;;
40847;SDS011;26570;50.962;5.340;2023-02-11T17:08:24;79.40;;;40.27;;
40847;SDS011;26570;50.962;5.340;2023-02-11T17:11:19;70.50;;;38.70;;
40847;SDS011;26570;50.962;5.340;2023-02-11T17:14:05;79.70;;;40.43;;
40847;SDS011;26570;50.962;5.340;2023-02-11T17:16:50;82.73;;;41.53;;
40847;SDS011;26570;50.962;5.340;2023-02-11T17:19:36;84.60;;;43.20;;
40847;SDS011;26570;50.962;5.340;2023-02-11T17:22:22;77.40;;;39.83;;
40847;SDS011;26570;50.962;5.340;2023-02-11T17:25:16;85.60;;;41.45;;
40847;SDS011;26570;50.962;5.340;2023-02-11T17:28:02;84.47;;;42.07;;
40847;SDS011;26570;50.962;5.340;2023-02-11T17:31:35;85.30;;;40.83;;
40847;SDS011;26570;50.962;5.340;2023-02-11T17:34:22;85.73;;;41.13;;
40847;SDS011;26570;50.962;5.340;2023-02-11T17:37:44;83.53;;;41.43;;
40847;SDS011;26570;50.962;5.340;2023-02-11T17:40:39;82.47;;;43.23;;
40847;SDS011;26570;50.962;5.340;2023-02-11T17:43:25;85.17;;;42.40;;
40847;SDS011;26570;50.962;5.340;2023-02-11T17:46:11;82.07;;;42.00;;
40847;SDS011;26570;50.962;5.340;2023-02-11T17:48:58;82.40;;;42.57;;
40847;SDS011;26570;50.962;5.340;2023-02-11T17:51:45;81.87;;;41.77;;
40847;SDS011;26570;50.962;5.340;2023-02-11T17:54:34;85.73;;;42.83;;
40847;SDS011;26570;50.962;5.340;2023-02-11T17:57:25;79.47;;;41.17;;
40847;SDS011;26570;50.962;5.340;2023-02-11T18:00:21;82.80;;;42.27;;
40847;SDS011;26570;50.962;5.340;2023-02-11T18:03:07;91.63;;;44.23;;
40847;SDS011;26570;50.962;5.340;2023-02-11T18:06:22;86.60;;;42.67;;
40847;SDS011;26570;50.962;5.340;2023-02-11T18:09:11;85.70;;;44.80;;
40847;SDS011;26570;50.962;5.340;2023-02-11T18:11:57;85.67;;;42.83;;
40847;SDS011;26570;50.962;5.340;2023-02-11T18:15:04;81.17;;;43.03;;
40847;SDS011;26570;50.962;5.340;2023-02-11T18:18:15;87.07;;;43.80;;
40847;SDS011;26570;50.962;5.340;2023-02-11T18:21:12;85.57;;;44.90;;
40847;SDS011;26570;50.962;5.340;2023-02-11T18:24:01;93.93;;;44.90;;
40847;SDS011;26570;50.962;5.340;2023-02-11T18:27:09;86.67;;;42.60;;
40847;SDS011;26570;50.962;5.340;2023-02-11T18:30:00;90.43;;;44.73;;
40847;SDS011;26570;50.962;5.340;2023-02-11T18:32:52;96.73;;;46.77;;
40847;SDS011;26570;50.962;5.340;2023-02-11T18:35:42;98.10;;;44.93;;
40847;SDS011;26570;50.962;5.340;2023-02-11T18:38:55;96.13;;;45.40;;
40847;SDS011;26570;50.962;5.340;2023-02-11T18:42:11;90.40;;;43.50;;
40847;SDS011;26570;50.962;5.340;2023-02-11T18:44:57;87.40;;;43.27;;
40847;SDS011;26570;50.962;5.340;2023-02-11T18:47:44;89.17;;;43.93;;
40847;SDS011;26570;50.962;5.340;2023-02-11T18:50:30;83.77;;;42.93;;
40847;SDS011;26570;50.962;5.340;2023-02-11T18:53:16;92.30;;;44.17;;
40847;SDS011;26570;50.962;5.340;2023-02-11T18:56:12;92.93;;;44.30;;
40847;SDS011;26570;50.962;5.340;2023-02-11T18:58:58;98.13;;;46.47;;
40847;SDS011;26570;50.962;5.340;2023-02-11T19:01:47;91.00;;;45.63;;
40847;SDS011;26570;50.962;5.340;2023-02-11T19:04:35;97.17;;;48.37;;
40847;SDS011;26570;50.962;5.340;2023-02-11T19:07:21;101.87;;;50.10;;
40847;SDS011;26570;50.962;5.340;2023-02-11T19:10:10;100.50;;;48.70;;
40847;SDS011;26570;50.962;5.340;2023-02-11T19:12:56;104.47;;;48.27;;
40847;SDS011;26570;50.962;5.340;2023-02-11T19:15:44;92.37;;;45.40;;
40847;SDS011;26570;50.962;5.340;2023-02-11T19:18:32;93.43;;;45.63;;
40847;SDS011;26570;50.962;5.340;2023-02-11T19:21:41;93.53;;;46.43;;
40847;SDS011;26570;50.962;5.340;2023-02-11T19:24:30;95.10;;;46.83;;
40847;SDS011;26570;50.962;5.340;2023-02-11T19:27:17;98.23;;;46.70;;
40847;SDS011;26570;50.962;5.340;2023-02-11T19:30:09;99.20;;;47.37;;
40847;SDS011;26570;50.962;5.340;2023-02-11T19:33:16;100.13;;;46.13;;
40847;SDS011;26570;50.962;5.340;2023-02-11T19:36:27;106.17;;;49.50;;
40847;SDS011;26570;50.962;5.340;2023-02-11T19:39:13;105.20;;;48.03;;
40847;SDS011;26570;50.962;5.340;2023-02-11T19:41:58;99.60;;;48.30;;
40847;SDS011;26570;50.962;5.340;2023-02-11T19:44:46;94.77;;;48.40;;
40847;SDS011;26570;50.962;5.340;2023-02-11T19:47:32;104.73;;;50.30;;
40847;SDS011;26570;50.962;5.340;2023-02-11T19:50:17;105.77;;;48.37;;
40847;SDS011;26570;50.962;5.340;2023-02-11T19:53:03;106.67;;;48.57;;
40847;SDS011;26570;50.962;5.340;2023-02-11T19:55:49;105.13;;;47.13;;
40847;SDS011;26570;50.962;5.340;2023-02-11T19:58:36;104.30;;;47.43;;
40847;SDS011;26570;50.962;5.340;2023-02-11T20:01:23;100.67;;;47.53;;
40847;SDS011;26570;50.962;5.340;2023-02-11T20:04:11;108.60;;;49.83;;
40847;SDS011;26570;50.962;5.340;2023-02-11T20:06:59;102.70;;;48.80;;
40847;SDS011;26570;50.962;5.340;2023-02-11T20:10:08;115.07;;;54.23;;
40847;SDS011;26570;50.962;5.340;2023-02-11T20:12:56;101.73;;;47.60;;
40847;SDS011;26570;50.962;5.340;2023-02-11T20:15:41;123.83;;;55.57;;
40847;SDS011;26570;50.962;5.340;2023-02-11T20:18:26;124.57;;;56.70;;
40847;SDS011;26570;50.962;5.340;2023-02-11T20:21:16;107.57;;;53.37;;
40847;SDS011;26570;50.962;5.340;2023-02-11T20:24:08;121.77;;;55.93;;
40847;SDS011;26570;50.962;5.340;2023-02-11T20:26:55;116.50;;;54.37;;